ARCT2: Red River, ARthur City

                                SHEF ID:       ARCT2     Red River at Arthur City, TX
STATION TYPE: Stream Gauge
Regulating: Stage = 27.00, Flow = 84609

PRECIP ELEVATION STAGE STAGE(2) RIV-FLOW BAT-LOAD
in ft ft ft cfs volt
Ccp-Rev Ccp-Rev Ccp-Rev Ccp-Rev Ccp-Rev Ccp-Rev
(America/Chicago)
03/10 00:00 0.00 ---- 11.10 ---- 13627 12.57
03/10 01:00 0.00 ---- 11.01 ---- 13397 12.57
03/10 02:00 0.00 ---- 10.92 ---- 13168 12.49
03/10 03:00 0.00 ---- 10.82 ---- 12916 12.49
03/10 04:00 0.00 ---- 10.72 ---- 12667 12.49
03/10 05:00 0.00 ---- 10.63 ---- 12444 12.49
03/10 06:00 0.00 ---- 10.52 ---- 12174 12.41
03/10 07:00 0.00 ---- 10.43 ---- 11955 12.41
03/10 08:00 0.00 ---- 10.36 ---- 11785 12.41
03/10 09:00 0.00 ---- 10.26 ---- 11546 12.41
03/10 10:00 0.00 ---- 10.19 ---- 11379 12.65
03/10 11:00 0.00 ---- 10.11 ---- 11190 13.05
03/10 12:00 0.00 ---- 10.02 ---- 10979 13.68
03/10 13:00 0.00 ---- 9.98 ---- 10885 13.60
03/10 14:00 0.00 ---- 9.92 ---- 10746 13.60
03/10 15:00 0.00 ---- 9.84 ---- 10562 13.60
03/10 16:00 0.00 ---- 9.79 ---- 10447 13.53
03/10 17:00 0.00 ---- 9.72 ---- 10297 13.53
03/10 18:00 0.00 ---- 9.66 ---- 10169 13.44
03/10 19:00 0.00 ---- 9.65 ---- 10148 13.29
03/10 20:00 0.00 ---- 9.59 ---- 10021 12.89
03/10 21:00 0.00 ---- 9.54 ---- 9915 12.57
03/10 22:00 0.00 ---- 9.47 ---- 9769 12.57
03/10 23:00 0.00 ---- 9.40 ---- 9623 12.57
Data processed at Wed 11Mar2026 04:30 GMT

NOTICE: If you are parsing this page

Please convert to using our Data API. Starting early 2026 we will be migrating to: https://water.usace.army.mil with modern pages rendered in JavaScript. When this migration completes you will no longer be able to scrape this page! CWMSDataAPI (CDA)

Timeseries IDs (TSIDs)

TSIDs used from left to right in the data table
ARTH.Precip-Inc.Total.1Hour.1Hour.Ccp-Rev
ARTH.Stage.Inst.1Hour.0.Ccp-Rev
ARTH.Stage-Alt.Inst.1Hour.0.Ccp-Rev
ARTH.Flow.Inst.1Hour.0.Ccp-Rev
ARTH.Volt-Battery Load.Inst.1Hour.0.Ccp-Rev

                            

All information presented herein is the property of the government of the United States of America and may be revised or deleted at any time without prior notice. Dissemination of this information without the expressed written consent of the Public Affairs Office, Tulsa District U.S. Army Corps of Engineers is strictly prohibited. These data are gathered electronically and, as presented, have NOT undergone any form of quality control. These data are NOT guaranteed to be valid or correct.